Amursk, Russia
Current Conditions -  °F | °C
As of 11:30 AM on Tuesday 25 Nov 2014 (Local Time) from UHHH Reporting Station
Clear Clear  
Wind Chill:   Ceiling: Unl
Heat Index: 16°   Visibility: 6mi
Dew Point:   Wind: 16mph
Humidity: 68%   Direction: 240°WSW
Pressure: 30.24"   Gusts: NA
Location:  50.22°N, 136.9°E
Report Text: UHHH 250130Z 24007MPS CAVOK M09/M14 Q1024 NOSIG RMK QFE761/101523090060
Loading
Personal Weather Stations






























Interactive Weather Map New forecast layout! Learn more

10-Day Weather Forecast

Advertisements
Track Severe Weather on mobile